createdAt,value
2022-09-21T00:01:34.152Z,24.00
2022-09-21T00:04:04.782Z,24.00
2022-09-21T00:06:35.064Z,23.90
2022-09-21T00:09:04.428Z,23.90
2022-09-21T00:11:33.819Z,24.10
2022-09-21T00:14:05.988Z,24.00
2022-09-21T00:16:34.688Z,23.90
2022-09-21T00:19:02.677Z,23.80
2022-09-21T00:21:30.950Z,23.80
2022-09-21T00:23:59.897Z,23.90
2022-09-21T00:26:29.196Z,24.00
2022-09-21T00:29:00.138Z,24.00
2022-09-21T00:31:29.278Z,24.00
2022-09-21T00:33:57.797Z,23.90
2022-09-21T00:36:25.717Z,24.00
2022-09-21T00:38:59.200Z,24.10
2022-09-21T00:41:30.141Z,24.00
2022-09-21T00:44:16.750Z,23.90
2022-09-21T00:46:47.417Z,23.80
2022-09-21T00:49:16.283Z,23.80
2022-09-21T00:51:45.095Z,23.90
2022-09-21T00:54:28.564Z,23.90
2022-09-21T00:56:57.633Z,23.90
2022-09-21T00:59:30.075Z,23.90
2022-09-21T01:01:59.929Z,23.90
2022-09-21T01:04:28.581Z,24.00
2022-09-21T01:06:57.401Z,24.10
2022-09-21T01:09:26.279Z,23.90
2022-09-21T01:12:19.326Z,23.80
2022-09-21T01:15:17.374Z,23.80
2022-09-21T01:18:00.691Z,23.90
2022-09-21T01:21:13.905Z,24.00
2022-09-21T01:23:57.237Z,24.00
2022-09-21T01:26:34.615Z,23.90
2022-09-21T01:29:28.907Z,23.90
2022-09-21T01:32:05.539Z,24.00
2022-09-21T01:35:00.536Z,24.00
2022-09-21T01:37:50.217Z,23.90
2022-09-21T01:40:36.006Z,23.80
2022-09-21T01:43:07.503Z,23.80
2022-09-21T01:45:48.051Z,23.90
2022-09-21T01:48:18.017Z,24.00
2022-09-21T01:50:50.883Z,24.00
2022-09-21T01:53:22.606Z,23.90
2022-09-21T01:55:54.413Z,23.90
2022-09-21T01:58:34.075Z,24.00
2022-09-21T02:01:03.529Z,24.00
2022-09-21T02:03:44.160Z,23.90
2022-09-21T02:06:13.138Z,23.90
2022-09-21T02:08:41.405Z,23.80
2022-09-21T02:11:09.598Z,23.80
2022-09-21T02:13:40.822Z,23.90
2022-09-21T02:16:09.067Z,24.00
2022-09-21T02:19:02.755Z,23.90
2022-09-21T02:21:58.280Z,23.70
2022-09-21T02:24:44.848Z,23.80
2022-09-21T02:27:31.216Z,23.90
2022-09-21T02:30:07.131Z,24.00
2022-09-21T02:32:46.266Z,23.90
2022-09-21T02:35:28.895Z,23.80
2022-09-21T02:38:01.977Z,23.80
2022-09-21T02:40:46.205Z,23.80
2022-09-21T02:43:34.512Z,23.90
2022-09-21T02:46:22.669Z,23.90
2022-09-21T02:48:58.136Z,23.90
2022-09-21T02:51:35.590Z,23.80
2022-09-21T02:54:07.347Z,23.90
2022-09-21T02:56:36.265Z,23.90
2022-09-21T02:59:06.225Z,24.00
2022-09-21T03:01:35.551Z,23.90
2022-09-21T03:04:03.895Z,23.80
2022-09-21T03:06:32.233Z,23.80
2022-09-21T03:09:00.303Z,23.80
2022-09-21T03:11:28.606Z,23.90
2022-09-21T03:13:57.006Z,23.90
2022-09-21T03:16:25.231Z,24.00
2022-09-21T03:18:53.475Z,23.90
2022-09-21T03:21:21.824Z,23.80
2022-09-21T03:23:49.844Z,23.90
2022-09-21T03:26:18.256Z,23.90
2022-09-21T03:28:46.370Z,23.90
2022-09-21T03:31:14.703Z,23.80
2022-09-21T03:33:42.965Z,23.70
2022-09-21T03:36:11.492Z,23.70
2022-09-21T03:38:39.532Z,23.60
2022-09-21T03:41:07.755Z,23.70
2022-09-21T03:43:36.001Z,23.80
2022-09-21T03:46:04.216Z,23.90
2022-09-21T03:48:32.438Z,23.90
2022-09-21T03:51:00.584Z,23.80
2022-09-21T03:53:28.913Z,23.80
2022-09-21T03:55:58.388Z,23.90
2022-09-21T03:58:26.642Z,23.90
2022-09-21T04:00:54.825Z,23.90
2022-09-21T04:03:22.924Z,23.80
2022-09-21T04:05:51.190Z,23.70
2022-09-21T04:08:19.384Z,23.70
2022-09-21T04:10:47.631Z,23.80
2022-09-21T04:13:15.821Z,23.90
2022-09-21T04:15:44.001Z,24.00
2022-09-21T04:18:12.229Z,23.90
2022-09-21T04:20:40.354Z,23.80
2022-09-21T04:23:08.538Z,23.80
2022-09-21T04:25:36.866Z,23.90
2022-09-21T04:28:04.969Z,23.90
2022-09-21T04:30:36.939Z,23.90
2022-09-21T04:33:06.190Z,23.80
2022-09-21T04:35:34.358Z,23.80
2022-09-21T04:38:02.568Z,23.70
2022-09-21T04:40:30.829Z,23.70
2022-09-21T04:42:58.840Z,23.90
2022-09-21T04:45:26.981Z,23.90
2022-09-21T04:47:55.278Z,23.90
2022-09-21T04:50:23.316Z,23.80
2022-09-21T04:53:04.438Z,23.80
2022-09-21T04:55:33.070Z,23.90
2022-09-21T04:58:01.150Z,24.00
2022-09-21T05:00:29.431Z,23.90
2022-09-21T05:02:57.702Z,23.80
2022-09-21T05:05:25.875Z,23.70
2022-09-21T05:07:54.131Z,23.60
2022-09-21T05:10:22.229Z,23.70
2022-09-21T05:12:50.723Z,23.80
2022-09-21T05:15:19.192Z,23.90
2022-09-21T05:17:47.307Z,23.90
2022-09-21T05:20:15.462Z,23.90
2022-09-21T05:22:43.710Z,23.80
2022-09-21T05:25:12.023Z,23.70
2022-09-21T05:27:40.170Z,23.80
2022-09-21T05:30:10.297Z,23.80
2022-09-21T05:33:01.888Z,23.90
2022-09-21T05:35:38.399Z,23.90
2022-09-21T05:38:13.624Z,23.80
2022-09-21T05:40:42.212Z,23.70
2022-09-21T05:43:11.546Z,23.60
2022-09-21T05:45:47.564Z,23.60
2022-09-21T05:48:22.136Z,23.60
2022-09-21T05:51:04.948Z,23.70
2022-09-21T05:53:54.585Z,23.80
2022-09-21T05:56:31.943Z,23.90
2022-09-21T05:59:41.629Z,23.90
2022-09-21T06:02:27.369Z,23.80
2022-09-21T06:04:58.306Z,23.70
2022-09-21T06:07:26.755Z,23.80
2022-09-21T06:09:54.978Z,23.80
2022-09-21T06:12:23.213Z,23.90
2022-09-21T06:14:51.528Z,23.90
2022-09-21T06:17:19.830Z,23.90
2022-09-21T06:19:47.963Z,23.70
2022-09-21T06:22:16.229Z,23.60
2022-09-21T06:24:44.260Z,23.60
2022-09-21T06:27:12.679Z,23.60
2022-09-21T06:29:40.832Z,23.70
2022-09-21T06:32:08.978Z,23.80
2022-09-21T06:34:37.201Z,23.90
2022-09-21T06:37:05.481Z,23.80
2022-09-21T06:39:33.717Z,23.70
2022-09-21T06:42:01.766Z,23.70
2022-09-21T06:44:30.375Z,23.80
2022-09-21T06:46:58.672Z,23.90
2022-09-21T06:49:26.864Z,23.90
2022-09-21T06:51:55.810Z,23.80
2022-09-21T06:54:23.646Z,23.70
2022-09-21T06:56:51.807Z,23.60
2022-09-21T06:59:20.112Z,23.60
2022-09-21T07:01:48.409Z,23.60
2022-09-21T07:04:16.509Z,23.80
2022-09-21T07:06:44.727Z,23.80
2022-09-21T07:12:00.952Z,23.90
2022-09-21T07:14:29.058Z,23.80
2022-09-21T07:16:57.319Z,23.70
2022-09-21T07:19:25.430Z,23.60
2022-09-21T07:21:56.916Z,23.80
2022-09-21T07:24:25.327Z,23.80
2022-09-21T07:26:53.490Z,23.90
2022-09-21T07:29:21.842Z,23.90
2022-09-21T07:31:49.963Z,23.80
2022-09-21T07:34:18.396Z,23.60
2022-09-21T07:36:46.700Z,23.50
2022-09-21T07:39:14.907Z,23.50
2022-09-21T07:41:42.986Z,23.50
2022-09-21T07:44:11.257Z,23.60
2022-09-21T07:46:45.634Z,23.70
2022-09-21T07:49:16.334Z,23.80
2022-09-21T07:51:44.724Z,23.90
2022-09-21T07:54:13.763Z,23.90
2022-09-21T07:56:42.552Z,23.80
2022-09-21T07:59:10.407Z,23.60
2022-09-21T08:01:41.041Z,23.60
2022-09-21T08:04:11.697Z,23.60
2022-09-21T08:06:39.926Z,23.70
2022-09-21T08:09:08.592Z,23.80
2022-09-21T08:11:36.583Z,23.90
2022-09-21T08:14:05.576Z,23.90
2022-09-21T08:16:34.424Z,23.80
2022-09-21T08:19:02.653Z,23.60
2022-09-21T08:21:31.153Z,23.50
2022-09-21T08:23:59.516Z,23.50
2022-09-21T08:26:27.562Z,23.50
2022-09-21T08:28:56.179Z,23.60
2022-09-21T08:31:24.661Z,23.60
2022-09-21T08:33:54.923Z,23.70
2022-09-21T08:36:23.081Z,23.80
2022-09-21T08:38:51.410Z,23.90
2022-09-21T08:41:39.194Z,23.80
2022-09-21T08:44:21.748Z,23.70
2022-09-21T08:47:03.914Z,23.60
2022-09-21T08:49:34.120Z,23.70
2022-09-21T08:52:06.244Z,23.80
2022-09-21T08:54:46.540Z,23.80
2022-09-21T08:57:16.261Z,23.90
2022-09-21T08:59:47.951Z,23.90
2022-09-21T09:02:42.172Z,23.80
2022-09-21T09:05:13.537Z,23.60
2022-09-21T09:08:14.353Z,23.50
2022-09-21T09:11:10.262Z,23.40
2022-09-21T09:13:52.497Z,23.50
2022-09-21T09:16:33.315Z,23.60
2022-09-21T09:19:16.557Z,23.70
2022-09-21T09:21:46.544Z,23.80
2022-09-21T09:24:37.524Z,23.80
2022-09-21T09:27:17.665Z,23.80
2022-09-21T09:30:20.008Z,23.60
2022-09-21T09:32:57.602Z,23.60
2022-09-21T09:35:30.578Z,23.60
2022-09-21T09:38:15.219Z,23.70
2022-09-21T09:40:46.249Z,23.80
2022-09-21T09:43:34.565Z,23.90
2022-09-21T09:46:18.614Z,23.80
2022-09-21T09:49:10.727Z,23.60
2022-09-21T09:51:40.267Z,23.50
2022-09-21T09:54:15.738Z,23.50
2022-09-21T09:56:44.475Z,23.40
2022-09-21T09:59:28.802Z,23.50
2022-09-21T10:02:19.081Z,23.50
2022-09-21T10:05:03.870Z,23.60
2022-09-21T10:07:43.731Z,23.70
2022-09-21T10:10:30.187Z,23.70
2022-09-21T10:13:03.772Z,23.80
2022-09-21T10:15:32.612Z,23.70
2022-09-21T10:18:08.104Z,23.50
2022-09-21T10:20:36.499Z,23.50
2022-09-21T10:23:04.942Z,23.60
2022-09-21T10:25:35.832Z,23.60
2022-09-21T10:28:07.942Z,23.70
2022-09-21T10:30:39.382Z,23.80
2022-09-21T10:33:20.679Z,23.80
2022-09-21T10:35:53.762Z,23.60
2022-09-21T10:38:26.191Z,23.50
2022-09-21T10:40:54.993Z,23.40
2022-09-21T10:43:46.426Z,23.40
2022-09-21T10:46:15.182Z,23.40
2022-09-21T10:48:47.029Z,23.50
2022-09-21T10:51:29.659Z,23.60
2022-09-21T10:53:59.002Z,23.60
2022-09-21T10:56:27.341Z,23.70
2022-09-21T10:59:24.456Z,23.80
2022-09-21T11:01:55.883Z,23.70
2022-09-21T11:04:27.703Z,23.60
2022-09-21T11:07:05.679Z,23.50
2022-09-21T11:09:47.371Z,23.60
2022-09-21T11:12:31.180Z,23.70
2022-09-21T11:14:59.803Z,23.80
2022-09-21T11:18:20.334Z,23.80
2022-09-21T11:20:51.504Z,23.80
2022-09-21T11:23:48.765Z,23.60
2022-09-21T11:26:38.640Z,23.50
2022-09-21T11:29:29.962Z,23.40
2022-09-21T11:32:11.276Z,23.40
2022-09-21T11:35:04.341Z,23.40
2022-09-21T11:37:56.868Z,23.50
2022-09-21T11:40:44.065Z,23.60
2022-09-21T11:43:20.783Z,23.60
2022-09-21T11:46:08.672Z,23.80
2022-09-21T11:49:14.691Z,23.70
2022-09-21T11:52:09.446Z,23.50
2022-09-21T11:54:56.087Z,23.50
2022-09-21T11:57:45.668Z,23.60
2022-09-21T12:00:14.067Z,23.70
2022-09-21T12:03:08.545Z,23.80
2022-09-21T12:05:46.464Z,23.80
2022-09-21T12:08:38.111Z,23.70
2022-09-21T12:11:15.632Z,23.50
2022-09-21T12:14:10.485Z,23.50
2022-09-21T12:17:00.007Z,23.50
2022-09-21T12:19:38.244Z,23.50
2022-09-21T12:22:29.212Z,23.60
2022-09-21T12:25:20.852Z,23.60
2022-09-21T12:28:01.846Z,23.70
2022-09-21T12:30:32.985Z,23.80
2022-09-21T12:33:15.429Z,23.70
2022-09-21T12:35:55.100Z,23.60
2022-09-21T12:38:26.439Z,23.60
2022-09-21T12:41:20.924Z,23.70
2022-09-21T12:44:33.908Z,23.70
2022-09-21T12:47:13.068Z,23.60
2022-09-21T12:49:45.311Z,23.60
2022-09-21T12:52:23.848Z,23.60
2022-09-21T12:55:10.519Z,23.60
2022-09-21T13:01:24.492Z,23.70
2022-09-21T13:04:15.895Z,23.70
2022-09-21T13:06:59.283Z,23.60
2022-09-21T13:09:29.348Z,23.60
2022-09-21T13:12:02.407Z,23.70
2022-09-21T13:14:37.511Z,23.80
2022-09-21T13:17:07.227Z,23.80
2022-09-21T13:19:36.824Z,23.60
2022-09-21T13:22:25.590Z,23.50
2022-09-21T13:25:27.377Z,23.50
2022-09-21T13:27:59.869Z,23.50
2022-09-21T13:30:51.366Z,23.50
2022-09-21T13:33:22.727Z,23.60
2022-09-21T13:36:02.421Z,23.70
2022-09-21T13:38:35.002Z,23.60
2022-09-21T13:41:20.828Z,23.60
2022-09-21T13:44:05.263Z,23.60
2022-09-21T13:46:36.483Z,23.70
2022-09-21T13:49:13.882Z,23.80
2022-09-21T13:52:02.504Z,23.70
2022-09-21T13:54:50.766Z,23.60
2022-09-21T13:57:18.702Z,23.50
2022-09-21T14:00:00.313Z,23.50
2022-09-21T14:02:40.733Z,23.50
2022-09-21T14:05:32.094Z,23.60
2022-09-21T14:08:15.649Z,23.80
2022-09-21T14:10:56.478Z,23.60
2022-09-21T14:13:40.858Z,23.60
2022-09-21T14:16:29.796Z,23.60
2022-09-21T14:18:58.173Z,23.70
2022-09-21T14:21:26.595Z,23.70
2022-09-21T14:24:07.747Z,23.60
2022-09-21T14:26:58.282Z,23.60
2022-09-21T14:29:43.949Z,23.60
2022-09-21T14:32:18.526Z,23.60
2022-09-21T14:34:49.843Z,23.70
2022-09-21T14:37:41.267Z,23.70
2022-09-21T14:40:22.795Z,23.60
2022-09-21T14:42:53.738Z,23.50
2022-09-21T14:45:45.675Z,23.60
2022-09-21T14:48:29.352Z,23.70
2022-09-21T14:51:12.667Z,23.80
2022-09-21T14:53:55.841Z,23.60
2022-09-21T14:56:47.003Z,23.50
2022-09-21T14:59:55.055Z,23.50
2022-09-21T15:02:29.971Z,23.50
2022-09-21T15:05:04.731Z,23.70
2022-09-21T15:08:05.375Z,23.80
2022-09-21T15:10:59.548Z,23.70
2022-09-21T15:13:52.381Z,23.60
2022-09-21T15:16:32.577Z,23.60
2022-09-21T15:19:27.773Z,23.80
2022-09-21T15:22:20.513Z,23.80
2022-09-21T15:25:02.884Z,23.60
2022-09-21T15:27:33.242Z,23.50
2022-09-21T15:30:07.193Z,23.50
2022-09-21T15:32:44.284Z,23.60
2022-09-21T15:35:23.205Z,23.70
2022-09-21T15:37:52.475Z,23.80
2022-09-21T15:40:27.214Z,23.80
2022-09-21T15:43:06.429Z,23.70
2022-09-21T15:46:05.145Z,23.60
2022-09-21T15:48:41.422Z,23.80
2022-09-21T15:51:20.864Z,23.80
2022-09-21T15:53:56.642Z,23.70
2022-09-21T15:56:28.330Z,23.60
2022-09-21T15:59:01.991Z,23.60
2022-09-21T16:01:30.494Z,23.60
2022-09-21T16:04:07.749Z,23.70
2022-09-21T16:06:41.242Z,23.80
2022-09-21T16:09:36.872Z,23.70
2022-09-21T16:12:36.364Z,23.60
2022-09-21T16:15:16.652Z,23.70
2022-09-21T16:18:00.195Z,23.80
2022-09-21T16:20:48.699Z,23.70
2022-09-21T16:23:23.718Z,23.60
2022-09-21T16:25:57.858Z,23.60
2022-09-21T16:28:35.481Z,23.60
2022-09-21T16:31:47.575Z,23.60
2022-09-21T16:34:21.775Z,23.70
2022-09-21T16:36:53.999Z,23.70
2022-09-21T16:39:22.405Z,23.60
2022-09-21T16:41:55.058Z,23.60
2022-09-21T16:44:25.214Z,23.80
2022-09-21T16:46:57.782Z,23.80
2022-09-21T16:49:30.130Z,23.70
2022-09-21T16:51:59.425Z,23.60
2022-09-21T16:54:27.514Z,23.50
2022-09-21T16:56:58.060Z,23.60
2022-09-21T16:59:27.009Z,23.60
2022-09-21T17:01:57.543Z,23.70
2022-09-21T17:04:30.943Z,23.80
2022-09-21T17:06:59.694Z,23.80
2022-09-21T17:09:30.677Z,23.80
2022-09-21T17:12:00.841Z,23.60
2022-09-21T17:14:30.546Z,23.70
2022-09-21T17:16:59.233Z,23.80
2022-09-21T17:19:27.339Z,23.90
2022-09-21T17:21:55.461Z,23.80
2022-09-21T17:24:46.297Z,23.70
2022-09-21T17:27:13.371Z,23.60
2022-09-21T17:29:41.601Z,23.60
2022-09-21T17:32:11.436Z,23.60
2022-09-21T17:34:39.815Z,23.70
2022-09-21T17:37:08.661Z,23.80
2022-09-21T17:39:37.349Z,23.80
2022-09-21T17:42:22.279Z,23.80
2022-09-21T17:45:08.739Z,23.60
2022-09-21T17:47:37.359Z,23.70
2022-09-21T17:50:14.469Z,23.80
2022-09-21T17:52:44.314Z,23.80
2022-09-21T17:55:13.852Z,23.80
2022-09-21T17:58:13.446Z,23.60
2022-09-21T18:01:05.423Z,23.60
2022-09-21T18:03:35.626Z,23.60
2022-09-21T18:06:05.819Z,23.60
2022-09-21T18:08:35.708Z,23.70
2022-09-21T18:11:18.673Z,23.80
2022-09-21T18:14:17.674Z,23.80
2022-09-21T18:17:01.153Z,23.70
2022-09-21T18:19:57.103Z,23.60
2022-09-21T18:22:57.847Z,23.60
2022-09-21T18:25:39.302Z,23.80
2022-09-21T18:28:38.518Z,23.80
2022-09-21T18:31:15.852Z,23.80
2022-09-21T18:34:15.956Z,23.70
2022-09-21T18:37:12.736Z,23.60
2022-09-21T18:39:47.188Z,23.50
2022-09-21T18:42:27.497Z,23.50
2022-09-21T18:45:07.959Z,23.60
2022-09-21T18:48:09.668Z,23.70
2022-09-21T18:51:05.773Z,23.80
2022-09-21T18:53:48.051Z,23.90
2022-09-21T18:56:16.941Z,23.80
2022-09-21T18:58:45.487Z,23.60
2022-09-21T19:04:16.560Z,23.70
2022-09-21T19:07:03.655Z,23.90
2022-09-21T19:09:38.161Z,23.90
2022-09-21T19:12:42.563Z,23.80
2022-09-21T19:15:15.938Z,23.70
2022-09-21T19:18:08.635Z,23.60
2022-09-21T19:21:06.246Z,23.50
2022-09-21T19:23:34.386Z,23.60
2022-09-21T19:26:06.755Z,23.70
2022-09-21T19:29:02.351Z,23.80
2022-09-21T19:31:30.987Z,23.80
2022-09-21T19:33:59.221Z,23.90
2022-09-21T19:36:27.492Z,23.80
2022-09-21T19:38:56.197Z,23.60
2022-09-21T19:41:33.292Z,23.60
2022-09-21T19:44:11.850Z,23.60
2022-09-21T19:46:59.100Z,23.70
2022-09-21T19:49:53.000Z,23.80
2022-09-21T19:52:33.089Z,23.90
2022-09-21T19:55:01.707Z,23.90
2022-09-21T19:57:30.862Z,23.80
2022-09-21T19:59:59.732Z,23.60
2022-09-21T20:02:31.983Z,23.50
2022-09-21T20:05:15.494Z,23.50
2022-09-21T20:08:01.908Z,23.50
2022-09-21T20:10:48.631Z,23.50
2022-09-21T20:13:26.579Z,23.50
2022-09-21T20:16:19.674Z,23.70
2022-09-21T20:19:00.202Z,23.80
2022-09-21T20:21:43.162Z,23.90
2022-09-21T20:24:22.118Z,23.80
2022-09-21T20:26:51.692Z,23.70
2022-09-21T20:29:20.551Z,23.60
2022-09-21T20:31:52.372Z,23.60
2022-09-21T20:34:21.076Z,23.70
2022-09-21T20:36:49.090Z,23.80
2022-09-21T20:39:17.312Z,23.80
2022-09-21T20:41:45.506Z,23.90
2022-09-21T20:44:13.840Z,23.90
2022-09-21T20:46:42.168Z,23.70
2022-09-21T20:49:12.694Z,23.60
2022-09-21T20:51:41.005Z,23.50
2022-09-21T20:54:09.209Z,23.40
2022-09-21T20:56:37.428Z,23.40
2022-09-21T20:59:05.651Z,23.50
2022-09-21T21:01:33.894Z,23.50
2022-09-21T21:04:02.510Z,23.60
2022-09-21T21:06:30.953Z,23.70
2022-09-21T21:08:59.358Z,23.80
2022-09-21T21:11:27.682Z,23.90
2022-09-21T21:13:56.902Z,23.80
2022-09-21T21:16:25.755Z,23.60
2022-09-21T21:18:53.507Z,23.50
2022-09-21T21:21:21.685Z,23.60
2022-09-21T21:23:50.455Z,23.70
2022-09-21T21:26:18.791Z,23.70
2022-09-21T21:28:46.886Z,23.80
2022-09-21T21:31:20.745Z,23.90
2022-09-21T21:33:49.586Z,23.80
2022-09-21T21:36:17.734Z,23.70
2022-09-21T21:38:45.953Z,23.50
2022-09-21T21:41:14.493Z,23.40
2022-09-21T21:43:43.302Z,23.40
2022-09-21T21:46:12.102Z,23.30
2022-09-21T21:48:40.940Z,23.40
2022-09-21T21:51:09.676Z,23.50
2022-09-21T21:53:39.530Z,23.60
2022-09-21T21:56:11.060Z,23.70
2022-09-21T21:58:39.720Z,23.70
2022-09-21T22:01:10.983Z,23.80
2022-09-21T22:03:40.435Z,23.80
2022-09-21T22:06:10.435Z,23.50
2022-09-21T22:08:40.148Z,23.50
2022-09-21T22:11:09.054Z,23.50
2022-09-21T22:13:39.296Z,23.60
2022-09-21T22:16:10.153Z,23.70
2022-09-21T22:18:39.313Z,23.80
2022-09-21T22:21:15.184Z,23.80
2022-09-21T22:23:44.366Z,23.80
2022-09-21T22:26:17.184Z,23.60
2022-09-21T22:28:48.179Z,23.50
2022-09-21T22:31:19.003Z,23.30
2022-09-21T22:33:47.873Z,23.40
2022-09-21T22:36:20.890Z,23.30
2022-09-21T22:38:49.943Z,23.40
2022-09-21T22:41:20.444Z,23.40
2022-09-21T22:43:51.120Z,23.50
2022-09-21T22:46:20.254Z,23.60
2022-09-21T22:48:48.652Z,23.70
2022-09-21T22:51:18.263Z,23.80
2022-09-21T22:53:48.121Z,23.70
2022-09-21T22:56:22.525Z,23.60
2022-09-21T22:58:56.240Z,23.40
2022-09-21T23:01:30.336Z,23.50
2022-09-21T23:04:00.965Z,23.60
2022-09-21T23:06:31.905Z,23.60
2022-09-21T23:09:02.138Z,23.80
2022-09-21T23:11:39.975Z,23.80
2022-09-21T23:14:08.150Z,23.80
2022-09-21T23:16:36.636Z,23.60
2022-09-21T23:19:04.882Z,23.40
2022-09-21T23:21:33.369Z,23.30
2022-09-21T23:24:03.131Z,23.30
2022-09-21T23:26:32.337Z,23.30
2022-09-21T23:29:03.179Z,23.30
2022-09-21T23:31:32.686Z,23.40
2022-09-21T23:34:05.363Z,23.50
2022-09-21T23:36:33.818Z,23.60
2022-09-21T23:39:02.299Z,23.60
2022-09-21T23:41:31.757Z,23.70
2022-09-21T23:44:00.838Z,23.80
2022-09-21T23:46:32.854Z,23.60
2022-09-21T23:49:01.893Z,23.40
2022-09-21T23:51:30.427Z,23.40
2022-09-21T23:53:59.819Z,23.50
2022-09-21T23:56:29.073Z,23.50
2022-09-21T23:58:57.487Z,23.60
